Terminal Aerodrome Forecast
Issued by NWS

Home | Current Version | Previous Version | Text Only | Print | Product List | Glossary On
Versions: 1 2 3 4 5 6 7 8 9 10 11 12 13 14 15 16 17 18 19 20 21 22 23 24 25 26 27 28 29
000
FTUS43 KDLH 281100
TAFHYR
TAF
KHYR 281120Z 2812/2912 00000KT P6SM FEW050 BKN090
      TEMPO 2812/2814 4SM BR
     FM281800 22008KT P6SM FEW030
     FM290100 VRB03KT P6SM SCT060
     FM290700 02008KT P6SM VCSH OVC050
     FM290900 01009G18KT 3SM -RA BR OVC012
      TEMPO 2910/2912 1 1/2SM -RA BR OVC008=

USA.gov is the U.S. government's official web portal to all federal, state and local government web resources and services.